Terminal Aerodrome Forecast
Issued by NWS Shreveport, LA

Home | Current Version | Previous Version | Text Only | Print | Product List | Glossary On
Versions: 1 2 3 4 5 6 7 8 9 10 11 12 13 14
000
FTUS44 KSHV 300500
TAFLFK
TAF
KLFK 300525Z 3006/3106 00000KT P6SM SCT250
     FM300900 00000KT P6SM BKN150 BKN250
     FM301500 13007KT P6SM FEW025 BKN120
     FM301800 14007KT P6SM SCT040 SCT120 BKN250
     FM310100 13006KT P6SM SCT150 BKN250=

USA.gov is the U.S. government's official web portal to all federal, state and local government web resources and services.